sensor_id;sensor_type;location;lat;lon;timestamp;P1;durP1;ratioP1;P2;durP2;ratioP2
37753;SDS011;23596;52.520;13.464;2023-05-27T00:02:15;21.67;;;6.00;;
37753;SDS011;23596;52.520;13.464;2023-05-27T00:04:41;28.35;;;5.22;;
37753;SDS011;23596;52.520;13.464;2023-05-27T00:07:07;31.90;;;5.07;;
37753;SDS011;23596;52.520;13.464;2023-05-27T00:09:33;25.90;;;5.88;;
37753;SDS011;23596;52.520;13.464;2023-05-27T00:11:58;25.23;;;5.25;;
37753;SDS011;23596;52.520;13.464;2023-05-27T00:14:24;27.00;;;6.15;;
37753;SDS011;23596;52.520;13.464;2023-05-27T00:16:50;20.60;;;6.22;;
37753;SDS011;23596;52.520;13.464;2023-05-27T00:19:16;23.07;;;5.20;;
37753;SDS011;23596;52.520;13.464;2023-05-27T00:21:42;28.60;;;5.78;;
37753;SDS011;23596;52.520;13.464;2023-05-27T00:24:08;25.13;;;4.60;;
37753;SDS011;23596;52.520;13.464;2023-05-27T00:26:34;30.60;;;5.95;;
37753;SDS011;23596;52.520;13.464;2023-05-27T00:29:00;33.60;;;5.85;;
37753;SDS011;23596;52.520;13.464;2023-05-27T00:31:25;23.10;;;5.15;;
37753;SDS011;23596;52.520;13.464;2023-05-27T00:33:52;24.35;;;6.10;;
37753;SDS011;23596;52.520;13.464;2023-05-27T00:36:17;20.83;;;4.80;;
37753;SDS011;23596;52.520;13.464;2023-05-27T00:38:43;27.87;;;5.97;;
37753;SDS011;23596;52.520;13.464;2023-05-27T00:41:10;27.07;;;5.63;;
37753;SDS011;23596;52.520;13.464;2023-05-27T00:43:37;20.85;;;5.00;;
37753;SDS011;23596;52.520;13.464;2023-05-27T00:46:02;35.72;;;5.85;;
37753;SDS011;23596;52.520;13.464;2023-05-27T00:48:28;26.83;;;5.03;;
37753;SDS011;23596;52.520;13.464;2023-05-27T00:50:54;31.33;;;5.63;;
37753;SDS011;23596;52.520;13.464;2023-05-27T00:53:20;46.53;;;5.43;;
37753;SDS011;23596;52.520;13.464;2023-05-27T00:55:46;23.73;;;5.17;;
37753;SDS011;23596;52.520;13.464;2023-05-27T00:58:12;28.87;;;5.93;;
37753;SDS011;23596;52.520;13.464;2023-05-27T01:00:38;27.95;;;5.40;;
37753;SDS011;23596;52.520;13.464;2023-05-27T01:03:07;20.23;;;5.15;;
37753;SDS011;23596;52.520;13.464;2023-05-27T01:05:33;25.00;;;5.32;;
37753;SDS011;23596;52.520;13.464;2023-05-27T01:11:09;29.42;;;5.30;;
37753;SDS011;23596;52.520;13.464;2023-05-27T01:13:40;28.33;;;5.80;;
37753;SDS011;23596;52.520;13.464;2023-05-27T01:16:17;34.85;;;5.93;;
37753;SDS011;23596;52.520;13.464;2023-05-27T01:18:46;23.88;;;6.00;;
37753;SDS011;23596;52.520;13.464;2023-05-27T01:21:15;27.73;;;6.28;;
37753;SDS011;23596;52.520;13.464;2023-05-27T01:23:46;25.05;;;5.43;;
37753;SDS011;23596;52.520;13.464;2023-05-27T01:26:13;26.35;;;5.55;;
37753;SDS011;23596;52.520;13.464;2023-05-27T01:28:38;33.13;;;5.82;;
37753;SDS011;23596;52.520;13.464;2023-05-27T01:31:30;30.55;;;6.03;;
37753;SDS011;23596;52.520;13.464;2023-05-27T01:33:59;21.38;;;5.20;;
37753;SDS011;23596;52.520;13.464;2023-05-27T01:36:29;25.60;;;5.53;;
37753;SDS011;23596;52.520;13.464;2023-05-27T01:38:58;36.58;;;6.68;;
37753;SDS011;23596;52.520;13.464;2023-05-27T01:41:27;19.70;;;5.43;;
37753;SDS011;23596;52.520;13.464;2023-05-27T01:43:53;27.73;;;6.13;;
37753;SDS011;23596;52.520;13.464;2023-05-27T01:46:19;29.27;;;5.30;;
37753;SDS011;23596;52.520;13.464;2023-05-27T01:48:45;27.30;;;5.50;;
37753;SDS011;23596;52.520;13.464;2023-05-27T01:51:11;35.60;;;5.07;;
37753;SDS011;23596;52.520;13.464;2023-05-27T01:53:37;31.50;;;6.43;;
37753;SDS011;23596;52.520;13.464;2023-05-27T01:56:03;28.90;;;6.10;;
37753;SDS011;23596;52.520;13.464;2023-05-27T01:58:28;30.83;;;6.33;;
37753;SDS011;23596;52.520;13.464;2023-05-27T02:00:54;26.23;;;5.43;;
37753;SDS011;23596;52.520;13.464;2023-05-27T02:03:20;33.22;;;6.25;;
37753;SDS011;23596;52.520;13.464;2023-05-27T02:05:45;30.13;;;5.57;;
37753;SDS011;23596;52.520;13.464;2023-05-27T02:08:11;34.60;;;5.13;;
37753;SDS011;23596;52.520;13.464;2023-05-27T02:10:36;26.48;;;5.65;;
37753;SDS011;23596;52.520;13.464;2023-05-27T02:13:02;28.30;;;5.77;;
37753;SDS011;23596;52.520;13.464;2023-05-27T02:15:28;20.77;;;5.53;;
37753;SDS011;23596;52.520;13.464;2023-05-27T02:17:53;25.92;;;5.57;;
37753;SDS011;23596;52.520;13.464;2023-05-27T02:20:21;22.35;;;6.32;;
37753;SDS011;23596;52.520;13.464;2023-05-27T02:22:47;23.77;;;5.50;;
37753;SDS011;23596;52.520;13.464;2023-05-27T02:25:14;30.70;;;6.68;;
37753;SDS011;23596;52.520;13.464;2023-05-27T02:27:40;30.60;;;5.87;;
37753;SDS011;23596;52.520;13.464;2023-05-27T02:30:07;33.28;;;5.32;;
37753;SDS011;23596;52.520;13.464;2023-05-27T02:32:33;31.73;;;6.03;;
37753;SDS011;23596;52.520;13.464;2023-05-27T02:34:58;25.83;;;4.88;;
37753;SDS011;23596;52.520;13.464;2023-05-27T02:37:24;40.97;;;6.22;;
37753;SDS011;23596;52.520;13.464;2023-05-27T02:39:52;27.77;;;5.57;;
37753;SDS011;23596;52.520;13.464;2023-05-27T02:42:18;33.10;;;5.70;;
37753;SDS011;23596;52.520;13.464;2023-05-27T02:44:44;28.83;;;6.10;;
37753;SDS011;23596;52.520;13.464;2023-05-27T02:47:09;32.67;;;5.72;;
37753;SDS011;23596;52.520;13.464;2023-05-27T02:49:35;26.10;;;5.80;;
37753;SDS011;23596;52.520;13.464;2023-05-27T02:52:01;35.57;;;5.93;;
37753;SDS011;23596;52.520;13.464;2023-05-27T02:54:27;24.05;;;5.38;;
37753;SDS011;23596;52.520;13.464;2023-05-27T02:56:53;40.43;;;7.17;;
37753;SDS011;23596;52.520;13.464;2023-05-27T02:59:18;26.47;;;5.13;;
37753;SDS011;23596;52.520;13.464;2023-05-27T03:01:44;36.70;;;6.87;;
37753;SDS011;23596;52.520;13.464;2023-05-27T03:04:10;30.63;;;6.40;;
37753;SDS011;23596;52.520;13.464;2023-05-27T03:06:35;29.70;;;5.97;;
37753;SDS011;23596;52.520;13.464;2023-05-27T03:09:02;31.98;;;5.65;;
37753;SDS011;23596;52.520;13.464;2023-05-27T03:11:28;35.33;;;6.57;;
37753;SDS011;23596;52.520;13.464;2023-05-27T03:13:54;42.77;;;6.93;;
37753;SDS011;23596;52.520;13.464;2023-05-27T03:16:19;30.20;;;5.80;;
37753;SDS011;23596;52.520;13.464;2023-05-27T03:18:45;28.77;;;6.47;;
37753;SDS011;23596;52.520;13.464;2023-05-27T03:21:11;35.63;;;6.60;;
37753;SDS011;23596;52.520;13.464;2023-05-27T03:23:37;26.58;;;5.78;;
37753;SDS011;23596;52.520;13.464;2023-05-27T03:26:03;40.08;;;6.93;;
37753;SDS011;23596;52.520;13.464;2023-05-27T03:28:29;29.90;;;5.93;;
37753;SDS011;23596;52.520;13.464;2023-05-27T03:30:55;34.05;;;6.70;;
37753;SDS011;23596;52.520;13.464;2023-05-27T03:33:21;31.85;;;6.05;;
37753;SDS011;23596;52.520;13.464;2023-05-27T03:38:14;42.17;;;7.32;;
37753;SDS011;23596;52.520;13.464;2023-05-27T03:40:40;28.53;;;6.27;;
37753;SDS011;23596;52.520;13.464;2023-05-27T03:43:05;30.47;;;5.43;;
37753;SDS011;23596;52.520;13.464;2023-05-27T03:45:31;32.37;;;6.37;;
37753;SDS011;23596;52.520;13.464;2023-05-27T03:47:57;37.40;;;6.97;;
37753;SDS011;23596;52.520;13.464;2023-05-27T03:50:22;29.33;;;6.83;;
37753;SDS011;23596;52.520;13.464;2023-05-27T03:52:48;34.38;;;5.97;;
37753;SDS011;23596;52.520;13.464;2023-05-27T03:55:14;30.33;;;7.20;;
37753;SDS011;23596;52.520;13.464;2023-05-27T03:57:41;27.75;;;6.97;;
37753;SDS011;23596;52.520;13.464;2023-05-27T04:00:07;29.23;;;7.10;;
37753;SDS011;23596;52.520;13.464;2023-05-27T04:02:36;41.22;;;7.18;;
37753;SDS011;23596;52.520;13.464;2023-05-27T04:05:02;37.03;;;6.63;;
37753;SDS011;23596;52.520;13.464;2023-05-27T04:07:28;26.63;;;6.03;;
37753;SDS011;23596;52.520;13.464;2023-05-27T04:09:54;30.97;;;6.30;;
37753;SDS011;23596;52.520;13.464;2023-05-27T04:12:19;28.50;;;5.67;;
37753;SDS011;23596;52.520;13.464;2023-05-27T04:14:45;35.47;;;6.87;;
37753;SDS011;23596;52.520;13.464;2023-05-27T04:17:11;31.30;;;6.65;;
37753;SDS011;23596;52.520;13.464;2023-05-27T04:19:38;43.88;;;6.80;;
37753;SDS011;23596;52.520;13.464;2023-05-27T04:22:04;48.10;;;7.33;;
37753;SDS011;23596;52.520;13.464;2023-05-27T04:24:29;31.85;;;6.70;;
37753;SDS011;23596;52.520;13.464;2023-05-27T04:26:55;25.15;;;6.97;;
37753;SDS011;23596;52.520;13.464;2023-05-27T04:29:21;30.43;;;5.67;;
37753;SDS011;23596;52.520;13.464;2023-05-27T04:31:47;39.67;;;6.78;;
37753;SDS011;23596;52.520;13.464;2023-05-27T04:34:13;35.35;;;6.75;;
37753;SDS011;23596;52.520;13.464;2023-05-27T04:36:39;41.83;;;6.63;;
37753;SDS011;23596;52.520;13.464;2023-05-27T04:39:05;27.23;;;6.63;;
37753;SDS011;23596;52.520;13.464;2023-05-27T04:41:31;35.72;;;6.32;;
37753;SDS011;23596;52.520;13.464;2023-05-27T04:43:58;27.85;;;6.22;;
37753;SDS011;23596;52.520;13.464;2023-05-27T04:46:26;37.55;;;6.57;;
37753;SDS011;23596;52.520;13.464;2023-05-27T04:48:52;36.03;;;6.82;;
37753;SDS011;23596;52.520;13.464;2023-05-27T04:51:18;30.80;;;7.03;;
37753;SDS011;23596;52.520;13.464;2023-05-27T04:53:45;30.10;;;6.67;;
37753;SDS011;23596;52.520;13.464;2023-05-27T04:56:13;39.47;;;6.97;;
37753;SDS011;23596;52.520;13.464;2023-05-27T04:58:40;30.13;;;7.00;;
37753;SDS011;23596;52.520;13.464;2023-05-27T05:01:08;31.83;;;5.82;;
37753;SDS011;23596;52.520;13.464;2023-05-27T05:03:42;34.85;;;6.25;;
37753;SDS011;23596;52.520;13.464;2023-05-27T05:06:38;32.95;;;6.40;;
37753;SDS011;23596;52.520;13.464;2023-05-27T05:09:04;30.20;;;6.82;;
37753;SDS011;23596;52.520;13.464;2023-05-27T05:11:30;38.65;;;7.22;;
37753;SDS011;23596;52.520;13.464;2023-05-27T05:13:56;31.25;;;6.10;;
37753;SDS011;23596;52.520;13.464;2023-05-27T05:16:22;28.42;;;6.53;;
37753;SDS011;23596;52.520;13.464;2023-05-27T05:18:47;36.47;;;7.00;;
37753;SDS011;23596;52.520;13.464;2023-05-27T05:21:13;25.65;;;7.25;;
37753;SDS011;23596;52.520;13.464;2023-05-27T05:23:39;23.98;;;5.63;;
37753;SDS011;23596;52.520;13.464;2023-05-27T05:26:05;32.03;;;6.43;;
37753;SDS011;23596;52.520;13.464;2023-05-27T05:28:33;26.13;;;5.65;;
37753;SDS011;23596;52.520;13.464;2023-05-27T05:31:00;25.98;;;4.90;;
37753;SDS011;23596;52.520;13.464;2023-05-27T05:33:25;28.35;;;5.50;;
37753;SDS011;23596;52.520;13.464;2023-05-27T05:35:51;21.73;;;5.23;;
37753;SDS011;23596;52.520;13.464;2023-05-27T05:38:17;31.05;;;6.22;;
37753;SDS011;23596;52.520;13.464;2023-05-27T05:40:43;23.37;;;5.50;;
37753;SDS011;23596;52.520;13.464;2023-05-27T05:43:13;27.55;;;5.88;;
37753;SDS011;23596;52.520;13.464;2023-05-27T05:45:39;21.37;;;4.43;;
37753;SDS011;23596;52.520;13.464;2023-05-27T05:48:04;23.17;;;4.63;;
37753;SDS011;23596;52.520;13.464;2023-05-27T05:50:30;24.17;;;5.25;;
37753;SDS011;23596;52.520;13.464;2023-05-27T05:52:56;25.33;;;5.27;;
37753;SDS011;23596;52.520;13.464;2023-05-27T05:55:21;21.97;;;5.17;;
37753;SDS011;23596;52.520;13.464;2023-05-27T05:57:47;30.00;;;4.20;;
37753;SDS011;23596;52.520;13.464;2023-05-27T06:00:13;16.50;;;4.03;;
37753;SDS011;23596;52.520;13.464;2023-05-27T06:02:39;20.13;;;4.45;;
37753;SDS011;23596;52.520;13.464;2023-05-27T06:05:08;17.38;;;3.90;;
37753;SDS011;23596;52.520;13.464;2023-05-27T06:07:33;17.27;;;3.90;;
37753;SDS011;23596;52.520;13.464;2023-05-27T06:09:59;17.90;;;4.07;;
37753;SDS011;23596;52.520;13.464;2023-05-27T06:12:25;20.15;;;3.97;;
37753;SDS011;23596;52.520;13.464;2023-05-27T06:14:50;15.57;;;3.97;;
37753;SDS011;23596;52.520;13.464;2023-05-27T06:17:16;21.17;;;3.20;;
37753;SDS011;23596;52.520;13.464;2023-05-27T06:19:42;9.75;;;2.40;;
37753;SDS011;23596;52.520;13.464;2023-05-27T06:22:07;16.60;;;2.70;;
37753;SDS011;23596;52.520;13.464;2023-05-27T06:24:33;12.90;;;2.80;;
37753;SDS011;23596;52.520;13.464;2023-05-27T06:26:59;12.70;;;2.50;;
37753;SDS011;23596;52.520;13.464;2023-05-27T06:31:51;13.20;;;2.42;;
37753;SDS011;23596;52.520;13.464;2023-05-27T06:34:17;15.43;;;2.60;;
37753;SDS011;23596;52.520;13.464;2023-05-27T06:36:42;10.20;;;2.33;;
37753;SDS011;23596;52.520;13.464;2023-05-27T06:39:08;8.40;;;1.92;;
37753;SDS011;23596;52.520;13.464;2023-05-27T06:41:34;7.03;;;1.52;;
37753;SDS011;23596;52.520;13.464;2023-05-27T06:43:59;9.37;;;1.77;;
37753;SDS011;23596;52.520;13.464;2023-05-27T06:46:25;5.70;;;1.30;;
37753;SDS011;23596;52.520;13.464;2023-05-27T06:48:51;5.72;;;1.67;;
37753;SDS011;23596;52.520;13.464;2023-05-27T06:51:16;8.73;;;1.45;;
37753;SDS011;23596;52.520;13.464;2023-05-27T06:53:43;8.93;;;1.67;;
37753;SDS011;23596;52.520;13.464;2023-05-27T06:56:08;5.00;;;1.60;;
37753;SDS011;23596;52.520;13.464;2023-05-27T06:58:34;18.35;;;3.72;;
37753;SDS011;23596;52.520;13.464;2023-05-27T07:00:59;3.38;;;1.33;;
37753;SDS011;23596;52.520;13.464;2023-05-27T07:03:25;8.18;;;1.65;;
37753;SDS011;23596;52.520;13.464;2023-05-27T07:05:51;6.82;;;1.65;;
37753;SDS011;23596;52.520;13.464;2023-05-27T07:08:16;6.30;;;1.30;;
37753;SDS011;23596;52.520;13.464;2023-05-27T07:10:42;4.53;;;1.30;;
37753;SDS011;23596;52.520;13.464;2023-05-27T07:13:08;8.47;;;1.43;;
37753;SDS011;23596;52.520;13.464;2023-05-27T07:15:33;6.97;;;1.30;;
37753;SDS011;23596;52.520;13.464;2023-05-27T07:17:59;8.95;;;1.75;;
37753;SDS011;23596;52.520;13.464;2023-05-27T07:20:24;6.43;;;1.27;;
37753;SDS011;23596;52.520;13.464;2023-05-27T07:22:50;8.38;;;1.35;;
37753;SDS011;23596;52.520;13.464;2023-05-27T07:25:16;3.33;;;1.20;;
37753;SDS011;23596;52.520;13.464;2023-05-27T07:27:41;10.03;;;1.50;;
37753;SDS011;23596;52.520;13.464;2023-05-27T07:30:07;8.02;;;1.10;;
37753;SDS011;23596;52.520;13.464;2023-05-27T07:32:33;4.60;;;1.27;;
37753;SDS011;23596;52.520;13.464;2023-05-27T07:34:59;3.60;;;1.02;;
37753;SDS011;23596;52.520;13.464;2023-05-27T07:37:24;5.28;;;1.13;;
37753;SDS011;23596;52.520;13.464;2023-05-27T07:42:17;5.20;;;1.08;;
37753;SDS011;23596;52.520;13.464;2023-05-27T07:44:42;6.85;;;2.25;;
37753;SDS011;23596;52.520;13.464;2023-05-27T07:47:08;9.93;;;1.50;;
37753;SDS011;23596;52.520;13.464;2023-05-27T07:49:34;3.17;;;1.00;;
37753;SDS011;23596;52.520;13.464;2023-05-27T07:51:59;1.87;;;1.00;;
37753;SDS011;23596;52.520;13.464;2023-05-27T07:54:25;7.75;;;1.20;;
37753;SDS011;23596;52.520;13.464;2023-05-27T07:56:52;4.97;;;0.82;;
37753;SDS011;23596;52.520;13.464;2023-05-27T07:59:18;3.70;;;0.80;;
37753;SDS011;23596;52.520;13.464;2023-05-27T08:01:43;5.43;;;0.82;;
37753;SDS011;23596;52.520;13.464;2023-05-27T08:04:09;2.07;;;0.50;;
37753;SDS011;23596;52.520;13.464;2023-05-27T08:06:35;3.75;;;0.77;;
37753;SDS011;23596;52.520;13.464;2023-05-27T08:09:01;2.40;;;0.88;;
37753;SDS011;23596;52.520;13.464;2023-05-27T08:11:28;2.45;;;0.68;;
37753;SDS011;23596;52.520;13.464;2023-05-27T08:13:54;3.13;;;0.88;;
37753;SDS011;23596;52.520;13.464;2023-05-27T08:16:20;3.47;;;0.90;;
37753;SDS011;23596;52.520;13.464;2023-05-27T08:18:45;6.60;;;0.75;;
37753;SDS011;23596;52.520;13.464;2023-05-27T08:21:11;8.10;;;1.00;;
37753;SDS011;23596;52.520;13.464;2023-05-27T08:23:36;3.78;;;0.80;;
37753;SDS011;23596;52.520;13.464;2023-05-27T08:26:02;1.30;;;0.57;;
37753;SDS011;23596;52.520;13.464;2023-05-27T08:28:28;2.00;;;0.80;;
37753;SDS011;23596;52.520;13.464;2023-05-27T08:30:53;1.65;;;0.40;;
37753;SDS011;23596;52.520;13.464;2023-05-27T08:33:19;3.53;;;0.80;;
37753;SDS011;23596;52.520;13.464;2023-05-27T08:35:44;2.10;;;0.60;;
37753;SDS011;23596;52.520;13.464;2023-05-27T08:38:10;8.93;;;1.37;;
37753;SDS011;23596;52.520;13.464;2023-05-27T08:40:36;2.58;;;0.65;;
37753;SDS011;23596;52.520;13.464;2023-05-27T08:43:03;2.97;;;1.00;;
37753;SDS011;23596;52.520;13.464;2023-05-27T08:45:31;2.33;;;0.85;;
37753;SDS011;23596;52.520;13.464;2023-05-27T08:47:58;4.97;;;0.70;;
37753;SDS011;23596;52.520;13.464;2023-05-27T08:50:25;3.50;;;0.82;;
37753;SDS011;23596;52.520;13.464;2023-05-27T08:52:52;4.47;;;1.00;;
37753;SDS011;23596;52.520;13.464;2023-05-27T08:55:19;3.78;;;1.00;;
37753;SDS011;23596;52.520;13.464;2023-05-27T08:57:50;4.90;;;1.00;;
37753;SDS011;23596;52.520;13.464;2023-05-27T09:00:19;6.50;;;0.75;;
37753;SDS011;23596;52.520;13.464;2023-05-27T09:02:45;3.08;;;0.90;;
37753;SDS011;23596;52.520;13.464;2023-05-27T09:05:12;3.25;;;0.90;;
37753;SDS011;23596;52.520;13.464;2023-05-27T09:07:39;1.20;;;0.47;;
37753;SDS011;23596;52.520;13.464;2023-05-27T09:10:06;1.98;;;0.57;;
37753;SDS011;23596;52.520;13.464;2023-05-27T09:12:32;5.18;;;0.88;;
37753;SDS011;23596;52.520;13.464;2023-05-27T09:14:58;7.30;;;1.00;;
37753;SDS011;23596;52.520;13.464;2023-05-27T09:17:25;3.38;;;0.90;;
37753;SDS011;23596;52.520;13.464;2023-05-27T09:19:51;5.13;;;0.82;;
37753;SDS011;23596;52.520;13.464;2023-05-27T09:22:30;1.58;;;0.80;;
37753;SDS011;23596;52.520;13.464;2023-05-27T09:24:56;8.20;;;1.30;;
37753;SDS011;23596;52.520;13.464;2023-05-27T09:27:29;4.95;;;0.95;;
37753;SDS011;23596;52.520;13.464;2023-05-27T09:29:56;3.70;;;1.02;;
37753;SDS011;23596;52.520;13.464;2023-05-27T09:34:54;4.00;;;1.00;;
37753;SDS011;23596;52.520;13.464;2023-05-27T09:37:24;3.28;;;0.95;;
37753;SDS011;23596;52.520;13.464;2023-05-27T09:40:06;6.97;;;1.20;;
37753;SDS011;23596;52.520;13.464;2023-05-27T09:42:47;5.90;;;1.25;;
37753;SDS011;23596;52.520;13.464;2023-05-27T09:47:41;5.03;;;0.85;;
37753;SDS011;23596;52.520;13.464;2023-05-27T09:50:12;5.88;;;1.15;;
37753;SDS011;23596;52.520;13.464;2023-05-27T09:52:42;4.22;;;0.95;;
37753;SDS011;23596;52.520;13.464;2023-05-27T09:55:09;3.65;;;1.65;;
37753;SDS011;23596;52.520;13.464;2023-05-27T09:57:36;8.18;;;1.77;;
37753;SDS011;23596;52.520;13.464;2023-05-27T10:00:03;5.75;;;1.80;;
37753;SDS011;23596;52.520;13.464;2023-05-27T10:02:41;5.32;;;1.30;;
37753;SDS011;23596;52.520;13.464;2023-05-27T10:05:11;6.60;;;2.08;;
37753;SDS011;23596;52.520;13.464;2023-05-27T10:07:38;4.05;;;1.63;;
37753;SDS011;23596;52.520;13.464;2023-05-27T10:10:10;7.72;;;1.77;;
37753;SDS011;23596;52.520;13.464;2023-05-27T10:12:37;2.75;;;1.50;;
37753;SDS011;23596;52.520;13.464;2023-05-27T10:15:04;5.35;;;1.60;;
37753;SDS011;23596;52.520;13.464;2023-05-27T10:17:42;6.13;;;1.42;;
37753;SDS011;23596;52.520;13.464;2023-05-27T10:22:55;6.10;;;1.27;;
37753;SDS011;23596;52.520;13.464;2023-05-27T10:25:22;1.85;;;1.10;;
37753;SDS011;23596;52.520;13.464;2023-05-27T10:28:00;3.15;;;1.23;;
37753;SDS011;23596;52.520;13.464;2023-05-27T10:30:25;6.63;;;1.43;;
37753;SDS011;23596;52.520;13.464;2023-05-27T10:32:52;3.72;;;1.00;;
37753;SDS011;23596;52.520;13.464;2023-05-27T10:35:19;8.32;;;1.50;;
37753;SDS011;23596;52.520;13.464;2023-05-27T10:37:46;10.05;;;1.20;;
37753;SDS011;23596;52.520;13.464;2023-05-27T10:40:12;3.40;;;1.20;;
37753;SDS011;23596;52.520;13.464;2023-05-27T10:42:57;5.07;;;1.48;;
37753;SDS011;23596;52.520;13.464;2023-05-27T10:45:33;3.67;;;1.13;;
37753;SDS011;23596;52.520;13.464;2023-05-27T10:47:59;6.82;;;1.65;;
37753;SDS011;23596;52.520;13.464;2023-05-27T10:52:59;4.47;;;1.40;;
37753;SDS011;23596;52.520;13.464;2023-05-27T10:55:27;6.13;;;1.45;;
37753;SDS011;23596;52.520;13.464;2023-05-27T10:57:55;2.60;;;1.20;;
37753;SDS011;23596;52.520;13.464;2023-05-27T11:00:23;3.55;;;1.42;;
37753;SDS011;23596;52.520;13.464;2023-05-27T11:02:52;3.45;;;1.70;;
37753;SDS011;23596;52.520;13.464;2023-05-27T11:05:19;8.50;;;1.55;;
37753;SDS011;23596;52.520;13.464;2023-05-27T11:07:45;4.18;;;1.27;;
37753;SDS011;23596;52.520;13.464;2023-05-27T11:10:11;4.70;;;1.80;;
37753;SDS011;23596;52.520;13.464;2023-05-27T11:12:43;4.32;;;1.75;;
37753;SDS011;23596;52.520;13.464;2023-05-27T11:15:10;7.45;;;1.77;;
37753;SDS011;23596;52.520;13.464;2023-05-27T11:17:35;3.83;;;2.10;;
37753;SDS011;23596;52.520;13.464;2023-05-27T11:20:01;5.77;;;1.60;;
37753;SDS011;23596;52.520;13.464;2023-05-27T11:22:30;4.28;;;1.80;;
37753;SDS011;23596;52.520;13.464;2023-05-27T11:24:59;2.97;;;1.73;;
37753;SDS011;23596;52.520;13.464;2023-05-27T11:27:31;8.80;;;2.15;;
37753;SDS011;23596;52.520;13.464;2023-05-27T11:30:05;5.15;;;2.10;;
37753;SDS011;23596;52.520;13.464;2023-05-27T11:32:35;8.02;;;2.22;;
37753;SDS011;23596;52.520;13.464;2023-05-27T11:35:01;6.47;;;2.07;;
37753;SDS011;23596;52.520;13.464;2023-05-27T11:37:31;7.35;;;1.85;;
37753;SDS011;23596;52.520;13.464;2023-05-27T11:39:57;4.35;;;1.73;;
37753;SDS011;23596;52.520;13.464;2023-05-27T11:42:23;6.93;;;1.97;;
37753;SDS011;23596;52.520;13.464;2023-05-27T11:44:50;3.95;;;1.75;;
37753;SDS011;23596;52.520;13.464;2023-05-27T11:47:16;6.15;;;2.28;;
37753;SDS011;23596;52.520;13.464;2023-05-27T11:49:42;6.27;;;2.33;;
37753;SDS011;23596;52.520;13.464;2023-05-27T11:52:08;6.60;;;2.33;;
37753;SDS011;23596;52.520;13.464;2023-05-27T11:54:37;3.78;;;1.50;;
37753;SDS011;23596;52.520;13.464;2023-05-27T11:57:03;7.38;;;1.80;;
37753;SDS011;23596;52.520;13.464;2023-05-27T11:59:33;5.85;;;1.77;;
37753;SDS011;23596;52.520;13.464;2023-05-27T12:01:59;3.20;;;1.40;;
37753;SDS011;23596;52.520;13.464;2023-05-27T12:04:25;6.10;;;1.70;;
37753;SDS011;23596;52.520;13.464;2023-05-27T12:06:51;5.23;;;1.77;;
37753;SDS011;23596;52.520;13.464;2023-05-27T12:09:17;6.87;;;1.83;;
37753;SDS011;23596;52.520;13.464;2023-05-27T12:11:44;5.13;;;1.77;;
37753;SDS011;23596;52.520;13.464;2023-05-27T12:14:10;5.93;;;1.50;;
37753;SDS011;23596;52.520;13.464;2023-05-27T12:16:35;7.00;;;1.63;;
37753;SDS011;23596;52.520;13.464;2023-05-27T12:19:01;3.33;;;1.63;;
37753;SDS011;23596;52.520;13.464;2023-05-27T12:21:26;4.03;;;1.50;;
37753;SDS011;23596;52.520;13.464;2023-05-27T12:23:52;3.13;;;1.27;;
37753;SDS011;23596;52.520;13.464;2023-05-27T12:26:18;2.33;;;1.20;;
37753;SDS011;23596;52.520;13.464;2023-05-27T12:28:43;3.17;;;1.07;;
37753;SDS011;23596;52.520;13.464;2023-05-27T12:31:10;2.90;;;1.52;;
37753;SDS011;23596;52.520;13.464;2023-05-27T12:33:35;5.17;;;1.30;;
37753;SDS011;23596;52.520;13.464;2023-05-27T12:36:01;7.53;;;1.30;;
37753;SDS011;23596;52.520;13.464;2023-05-27T12:38:28;5.00;;;1.50;;
37753;SDS011;23596;52.520;13.464;2023-05-27T12:40:54;3.03;;;1.30;;
37753;SDS011;23596;52.520;13.464;2023-05-27T12:43:23;3.92;;;1.33;;
37753;SDS011;23596;52.520;13.464;2023-05-27T12:45:49;4.68;;;1.20;;
37753;SDS011;23596;52.520;13.464;2023-05-27T12:48:15;2.58;;;1.42;;
37753;SDS011;23596;52.520;13.464;2023-05-27T12:50:42;4.53;;;1.25;;
37753;SDS011;23596;52.520;13.464;2023-05-27T12:53:08;3.53;;;1.20;;
37753;SDS011;23596;52.520;13.464;2023-05-27T12:55:34;2.70;;;1.07;;
37753;SDS011;23596;52.520;13.464;2023-05-27T12:58:00;4.88;;;1.55;;
37753;SDS011;23596;52.520;13.464;2023-05-27T13:00:26;3.30;;;1.30;;
37753;SDS011;23596;52.520;13.464;2023-05-27T13:02:52;4.65;;;1.40;;
37753;SDS011;23596;52.520;13.464;2023-05-27T13:05:18;4.80;;;1.60;;
37753;SDS011;23596;52.520;13.464;2023-05-27T13:10:26;3.03;;;1.35;;
37753;SDS011;23596;52.520;13.464;2023-05-27T13:12:52;3.10;;;1.42;;
37753;SDS011;23596;52.520;13.464;2023-05-27T13:15:19;2.10;;;1.55;;
37753;SDS011;23596;52.520;13.464;2023-05-27T13:17:46;8.18;;;1.95;;
37753;SDS011;23596;52.520;13.464;2023-05-27T13:20:13;4.65;;;1.50;;
37753;SDS011;23596;52.520;13.464;2023-05-27T13:22:39;2.53;;;1.10;;
37753;SDS011;23596;52.520;13.464;2023-05-27T13:25:07;3.47;;;1.30;;
37753;SDS011;23596;52.520;13.464;2023-05-27T13:27:33;6.68;;;1.85;;
37753;SDS011;23596;52.520;13.464;2023-05-27T13:29:58;6.77;;;1.80;;
37753;SDS011;23596;52.520;13.464;2023-05-27T13:32:24;1.30;;;1.20;;
37753;SDS011;23596;52.520;13.464;2023-05-27T13:34:50;2.85;;;1.25;;
37753;SDS011;23596;52.520;13.464;2023-05-27T13:37:20;2.03;;;1.30;;
37753;SDS011;23596;52.520;13.464;2023-05-27T13:39:45;10.88;;;1.85;;
37753;SDS011;23596;52.520;13.464;2023-05-27T13:42:11;4.43;;;1.50;;
37753;SDS011;23596;52.520;13.464;2023-05-27T13:44:37;7.97;;;1.52;;
37753;SDS011;23596;52.520;13.464;2023-05-27T13:47:03;2.70;;;1.50;;
37753;SDS011;23596;52.520;13.464;2023-05-27T13:49:29;3.90;;;1.40;;
37753;SDS011;23596;52.520;13.464;2023-05-27T13:51:55;4.78;;;1.55;;
37753;SDS011;23596;52.520;13.464;2023-05-27T13:54:21;4.38;;;1.65;;
37753;SDS011;23596;52.520;13.464;2023-05-27T13:56:47;3.22;;;1.50;;
37753;SDS011;23596;52.520;13.464;2023-05-27T13:59:13;3.38;;;1.60;;
37753;SDS011;23596;52.520;13.464;2023-05-27T14:01:39;6.10;;;1.80;;
37753;SDS011;23596;52.520;13.464;2023-05-27T14:04:08;10.07;;;1.73;;
37753;SDS011;23596;52.520;13.464;2023-05-27T14:06:33;10.30;;;2.25;;
37753;SDS011;23596;52.520;13.464;2023-05-27T14:09:00;2.53;;;1.50;;
37753;SDS011;23596;52.520;13.464;2023-05-27T14:13:52;3.28;;;1.42;;
37753;SDS011;23596;52.520;13.464;2023-05-27T14:16:19;3.22;;;1.55;;
37753;SDS011;23596;52.520;13.464;2023-05-27T14:18:46;10.60;;;1.73;;
37753;SDS011;23596;52.520;13.464;2023-05-27T14:23:37;5.70;;;1.70;;
37753;SDS011;23596;52.520;13.464;2023-05-27T14:26:03;6.18;;;1.70;;
37753;SDS011;23596;52.520;13.464;2023-05-27T14:28:29;10.70;;;1.67;;
37753;SDS011;23596;52.520;13.464;2023-05-27T14:30:54;4.20;;;1.60;;
37753;SDS011;23596;52.520;13.464;2023-05-27T14:33:20;7.13;;;1.75;;
37753;SDS011;23596;52.520;13.464;2023-05-27T14:35:46;3.38;;;1.67;;
37753;SDS011;23596;52.520;13.464;2023-05-27T14:40:37;2.95;;;1.80;;
37753;SDS011;23596;52.520;13.464;2023-05-27T14:43:03;2.97;;;1.70;;
37753;SDS011;23596;52.520;13.464;2023-05-27T14:47:55;4.57;;;1.42;;
37753;SDS011;23596;52.520;13.464;2023-05-27T14:52:48;3.90;;;1.80;;
37753;SDS011;23596;52.520;13.464;2023-05-27T14:55:14;3.72;;;1.63;;
37753;SDS011;23596;52.520;13.464;2023-05-27T14:57:40;2.67;;;1.52;;
37753;SDS011;23596;52.520;13.464;2023-05-27T15:00:06;2.15;;;1.60;;
37753;SDS011;23596;52.520;13.464;2023-05-27T15:02:36;3.10;;;1.85;;